Terminal Aerodrome Forecast
Issued by NWS

Home | Current Version | Previous Version | Text Only | Print | Product List | Glossary On
Versions: 1 2 3 4 5 6 7 8 9 10 11 12 13 14 15 16 17 18 19 20 21 22 23
000
FTUS46 KOTX 051139
TAFMWH
TAF
KMWH 051139Z 0512/0612 14011KT P6SM -RA SCT050 BKN060 OVC100
     FM051800 33010KT P6SM SCT050 BKN070 BKN100
     FM052200 26011G16KT P6SM SCT070 BKN100
     FM060100 22009KT P6SM FEW080 SCT150=

USA.gov is the U.S. government's official web portal to all federal, state and local government web resources and services.